sensor_id;sensor_type;location;lat;lon;timestamp;P1;durP1;ratioP1;P2;durP2;ratioP2
35126;SDS011;21300;52.006;5.798;2022-07-03T00:01:23;2.03;;;1.10;;
35126;SDS011;21300;52.006;5.798;2022-07-03T00:03:49;2.70;;;0.90;;
35126;SDS011;21300;52.006;5.798;2022-07-03T00:06:15;4.68;;;1.08;;
35126;SDS011;21300;52.006;5.798;2022-07-03T00:08:40;2.30;;;1.17;;
35126;SDS011;21300;52.006;5.798;2022-07-03T00:11:06;3.58;;;1.10;;
35126;SDS011;21300;52.006;5.798;2022-07-03T00:13:32;2.13;;;1.02;;
35126;SDS011;21300;52.006;5.798;2022-07-03T00:15:58;3.47;;;1.58;;
35126;SDS011;21300;52.006;5.798;2022-07-03T00:18:23;3.65;;;1.00;;
35126;SDS011;21300;52.006;5.798;2022-07-03T00:20:49;4.35;;;1.05;;
35126;SDS011;21300;52.006;5.798;2022-07-03T00:25:51;3.47;;;1.30;;
35126;SDS011;21300;52.006;5.798;2022-07-03T00:28:18;3.08;;;1.73;;
35126;SDS011;21300;52.006;5.798;2022-07-03T00:30:45;4.55;;;1.40;;
35126;SDS011;21300;52.006;5.798;2022-07-03T00:33:13;5.90;;;2.40;;
35126;SDS011;21300;52.006;5.798;2022-07-03T00:35:40;2.67;;;1.40;;
35126;SDS011;21300;52.006;5.798;2022-07-03T00:38:10;3.35;;;1.55;;
35126;SDS011;21300;52.006;5.798;2022-07-03T00:40:37;2.00;;;1.27;;
35126;SDS011;21300;52.006;5.798;2022-07-03T00:43:03;4.20;;;1.30;;
35126;SDS011;21300;52.006;5.798;2022-07-03T00:45:32;4.93;;;1.23;;
35126;SDS011;21300;52.006;5.798;2022-07-03T00:47:59;2.50;;;1.20;;
35126;SDS011;21300;52.006;5.798;2022-07-03T00:50:26;3.03;;;0.85;;
35126;SDS011;21300;52.006;5.798;2022-07-03T00:52:59;2.80;;;1.20;;
35126;SDS011;21300;52.006;5.798;2022-07-03T00:55:27;2.95;;;1.42;;
35126;SDS011;21300;52.006;5.798;2022-07-03T00:57:54;4.20;;;1.48;;
35126;SDS011;21300;52.006;5.798;2022-07-03T01:00:21;7.18;;;1.38;;
35126;SDS011;21300;52.006;5.798;2022-07-03T01:03:00;2.45;;;1.30;;
35126;SDS011;21300;52.006;5.798;2022-07-03T01:05:40;4.30;;;1.10;;
35126;SDS011;21300;52.006;5.798;2022-07-03T01:24:37;3.30;;;1.08;;
35126;SDS011;21300;52.006;5.798;2022-07-03T01:27:04;4.38;;;1.17;;
35126;SDS011;21300;52.006;5.798;2022-07-03T01:29:38;3.03;;;1.10;;
35126;SDS011;21300;52.006;5.798;2022-07-03T01:32:08;2.55;;;1.30;;
35126;SDS011;21300;52.006;5.798;2022-07-03T01:34:37;2.67;;;1.20;;
35126;SDS011;21300;52.006;5.798;2022-07-03T01:37:08;2.15;;;1.00;;
35126;SDS011;21300;52.006;5.798;2022-07-03T01:39:36;4.13;;;1.40;;
35126;SDS011;21300;52.006;5.798;2022-07-03T01:42:04;2.50;;;1.30;;
35126;SDS011;21300;52.006;5.798;2022-07-03T01:44:33;3.30;;;1.15;;
35126;SDS011;21300;52.006;5.798;2022-07-03T01:47:00;2.67;;;1.17;;
35126;SDS011;21300;52.006;5.798;2022-07-03T01:49:27;3.88;;;1.40;;
35126;SDS011;21300;52.006;5.798;2022-07-03T01:51:53;1.85;;;1.00;;
35126;SDS011;21300;52.006;5.798;2022-07-03T01:54:20;3.55;;;1.42;;
35126;SDS011;21300;52.006;5.798;2022-07-03T01:56:50;4.35;;;1.50;;
35126;SDS011;21300;52.006;5.798;2022-07-03T01:59:16;1.38;;;1.17;;
35126;SDS011;21300;52.006;5.798;2022-07-03T02:01:47;2.35;;;1.15;;
35126;SDS011;21300;52.006;5.798;2022-07-03T02:04:24;3.05;;;1.20;;
35126;SDS011;21300;52.006;5.798;2022-07-03T02:07:11;4.60;;;1.05;;
35126;SDS011;21300;52.006;5.798;2022-07-03T02:12:36;3.20;;;1.38;;
35126;SDS011;21300;52.006;5.798;2022-07-03T02:15:05;2.90;;;1.45;;
35126;SDS011;21300;52.006;5.798;2022-07-03T02:17:43;3.92;;;1.58;;
35126;SDS011;21300;52.006;5.798;2022-07-03T02:20:10;2.70;;;1.50;;
35126;SDS011;21300;52.006;5.798;2022-07-03T02:22:38;3.90;;;1.95;;
35126;SDS011;21300;52.006;5.798;2022-07-03T02:25:07;2.97;;;1.88;;
35126;SDS011;21300;52.006;5.798;2022-07-03T02:27:42;4.22;;;1.50;;
35126;SDS011;21300;52.006;5.798;2022-07-03T02:30:23;1.77;;;1.42;;
35126;SDS011;21300;52.006;5.798;2022-07-03T02:32:50;2.42;;;1.40;;
35126;SDS011;21300;52.006;5.798;2022-07-03T02:35:21;3.50;;;1.70;;
35126;SDS011;21300;52.006;5.798;2022-07-03T02:37:53;4.68;;;1.70;;
35126;SDS011;21300;52.006;5.798;2022-07-03T02:49:14;2.30;;;1.77;;
35126;SDS011;21300;52.006;5.798;2022-07-03T02:51:52;2.58;;;1.65;;
35126;SDS011;21300;52.006;5.798;2022-07-03T02:54:27;2.60;;;1.60;;
35126;SDS011;21300;52.006;5.798;2022-07-03T02:57:05;6.05;;;1.85;;
35126;SDS011;21300;52.006;5.798;2022-07-03T03:02:06;3.17;;;1.70;;
35126;SDS011;21300;52.006;5.798;2022-07-03T03:04:39;3.45;;;1.75;;
35126;SDS011;21300;52.006;5.798;2022-07-03T03:07:12;5.25;;;1.85;;
35126;SDS011;21300;52.006;5.798;2022-07-03T03:09:40;2.97;;;1.88;;
35126;SDS011;21300;52.006;5.798;2022-07-03T03:12:08;2.60;;;1.88;;
35126;SDS011;21300;52.006;5.798;2022-07-03T03:14:44;2.55;;;1.83;;
35126;SDS011;21300;52.006;5.798;2022-07-03T03:17:16;3.05;;;1.75;;
35126;SDS011;21300;52.006;5.798;2022-07-03T03:19:47;4.53;;;2.00;;
35126;SDS011;21300;52.006;5.798;2022-07-03T03:27:38;4.18;;;2.13;;
35126;SDS011;21300;52.006;5.798;2022-07-03T03:30:04;2.35;;;2.00;;
35126;SDS011;21300;52.006;5.798;2022-07-03T03:32:31;4.25;;;2.08;;
35126;SDS011;21300;52.006;5.798;2022-07-03T03:35:01;4.18;;;2.28;;
35126;SDS011;21300;52.006;5.798;2022-07-03T03:37:27;4.00;;;2.17;;
35126;SDS011;21300;52.006;5.798;2022-07-03T03:39:53;3.20;;;2.17;;
35126;SDS011;21300;52.006;5.798;2022-07-03T03:42:18;5.53;;;2.03;;
35126;SDS011;21300;52.006;5.798;2022-07-03T03:44:44;2.20;;;1.73;;
35126;SDS011;21300;52.006;5.798;2022-07-03T03:47:10;3.63;;;1.90;;
35126;SDS011;21300;52.006;5.798;2022-07-03T03:49:35;2.15;;;1.90;;
35126;SDS011;21300;52.006;5.798;2022-07-03T03:52:01;3.33;;;1.80;;
35126;SDS011;21300;52.006;5.798;2022-07-03T03:54:27;5.45;;;1.85;;
35126;SDS011;21300;52.006;5.798;2022-07-03T03:56:52;6.78;;;2.05;;
35126;SDS011;21300;52.006;5.798;2022-07-03T03:59:18;5.43;;;2.00;;
35126;SDS011;21300;52.006;5.798;2022-07-03T04:01:43;5.90;;;2.30;;
35126;SDS011;21300;52.006;5.798;2022-07-03T04:04:11;2.55;;;2.05;;
35126;SDS011;21300;52.006;5.798;2022-07-03T04:06:37;2.95;;;2.30;;
35126;SDS011;21300;52.006;5.798;2022-07-03T04:09:03;3.78;;;2.42;;
35126;SDS011;21300;52.006;5.798;2022-07-03T04:11:28;3.33;;;2.30;;
35126;SDS011;21300;52.006;5.798;2022-07-03T04:13:54;3.75;;;2.40;;
35126;SDS011;21300;52.006;5.798;2022-07-03T04:16:20;3.95;;;2.20;;
35126;SDS011;21300;52.006;5.798;2022-07-03T04:18:45;5.78;;;2.30;;
35126;SDS011;21300;52.006;5.798;2022-07-03T04:21:11;4.63;;;2.30;;
35126;SDS011;21300;52.006;5.798;2022-07-03T04:23:36;2.40;;;2.00;;
35126;SDS011;21300;52.006;5.798;2022-07-03T04:26:05;2.92;;;2.00;;
35126;SDS011;21300;52.006;5.798;2022-07-03T04:28:31;6.78;;;2.75;;
35126;SDS011;21300;52.006;5.798;2022-07-03T04:30:57;3.30;;;2.20;;
35126;SDS011;21300;52.006;5.798;2022-07-03T04:33:23;5.78;;;2.20;;
35126;SDS011;21300;52.006;5.798;2022-07-03T04:35:49;3.20;;;2.00;;
35126;SDS011;21300;52.006;5.798;2022-07-03T04:38:14;2.53;;;2.20;;
35126;SDS011;21300;52.006;5.798;2022-07-03T04:40:40;3.88;;;1.90;;
35126;SDS011;21300;52.006;5.798;2022-07-03T04:43:05;4.00;;;2.10;;
35126;SDS011;21300;52.006;5.798;2022-07-03T04:45:31;3.83;;;2.05;;
35126;SDS011;21300;52.006;5.798;2022-07-03T04:47:57;2.90;;;2.22;;
35126;SDS011;21300;52.006;5.798;2022-07-03T04:50:22;3.17;;;2.20;;
35126;SDS011;21300;52.006;5.798;2022-07-03T04:52:48;6.18;;;2.90;;
35126;SDS011;21300;52.006;5.798;2022-07-03T04:55:13;2.55;;;2.35;;
35126;SDS011;21300;52.006;5.798;2022-07-03T04:57:39;2.83;;;2.50;;
35126;SDS011;21300;52.006;5.798;2022-07-03T05:00:05;4.95;;;3.00;;
35126;SDS011;21300;52.006;5.798;2022-07-03T05:02:32;5.65;;;2.80;;
35126;SDS011;21300;52.006;5.798;2022-07-03T05:04:58;4.68;;;3.03;;
35126;SDS011;21300;52.006;5.798;2022-07-03T05:07:23;6.93;;;3.13;;
35126;SDS011;21300;52.006;5.798;2022-07-03T05:09:49;4.63;;;2.92;;
35126;SDS011;21300;52.006;5.798;2022-07-03T05:12:14;3.85;;;2.80;;
35126;SDS011;21300;52.006;5.798;2022-07-03T05:14:40;5.40;;;2.50;;
35126;SDS011;21300;52.006;5.798;2022-07-03T05:17:05;3.13;;;2.42;;
35126;SDS011;21300;52.006;5.798;2022-07-03T05:19:31;3.50;;;2.30;;
35126;SDS011;21300;52.006;5.798;2022-07-03T05:21:57;3.25;;;2.08;;
35126;SDS011;21300;52.006;5.798;2022-07-03T05:24:22;2.85;;;2.20;;
35126;SDS011;21300;52.006;5.798;2022-07-03T05:26:49;4.47;;;2.17;;
35126;SDS011;21300;52.006;5.798;2022-07-03T05:29:15;3.72;;;2.38;;
35126;SDS011;21300;52.006;5.798;2022-07-03T05:31:41;6.70;;;2.55;;
35126;SDS011;21300;52.006;5.798;2022-07-03T05:34:06;3.45;;;2.28;;
35126;SDS011;21300;52.006;5.798;2022-07-03T05:36:33;5.60;;;2.22;;
35126;SDS011;21300;52.006;5.798;2022-07-03T05:38:58;2.60;;;2.28;;
35126;SDS011;21300;52.006;5.798;2022-07-03T05:41:43;3.13;;;2.00;;
35126;SDS011;21300;52.006;5.798;2022-07-03T05:44:08;4.75;;;2.20;;
35126;SDS011;21300;52.006;5.798;2022-07-03T05:46:34;5.10;;;2.45;;
35126;SDS011;21300;52.006;5.798;2022-07-03T05:48:59;4.88;;;2.00;;
35126;SDS011;21300;52.006;5.798;2022-07-03T05:51:25;2.80;;;2.03;;
35126;SDS011;21300;52.006;5.798;2022-07-03T05:53:50;5.93;;;2.10;;
35126;SDS011;21300;52.006;5.798;2022-07-03T05:56:16;5.00;;;2.25;;
35126;SDS011;21300;52.006;5.798;2022-07-03T05:58:42;3.97;;;1.95;;
35126;SDS011;21300;52.006;5.798;2022-07-03T06:01:07;5.53;;;2.65;;
35126;SDS011;21300;52.006;5.798;2022-07-03T06:03:33;5.40;;;1.95;;
35126;SDS011;21300;52.006;5.798;2022-07-03T06:05:59;3.35;;;2.00;;
35126;SDS011;21300;52.006;5.798;2022-07-03T06:08:24;3.20;;;2.10;;
35126;SDS011;21300;52.006;5.798;2022-07-03T06:10:50;5.93;;;1.90;;
35126;SDS011;21300;52.006;5.798;2022-07-03T06:13:15;7.22;;;2.00;;
35126;SDS011;21300;52.006;5.798;2022-07-03T06:15:41;4.55;;;1.98;;
35126;SDS011;21300;52.006;5.798;2022-07-03T06:18:07;4.88;;;2.00;;
35126;SDS011;21300;52.006;5.798;2022-07-03T06:20:32;5.28;;;1.88;;
35126;SDS011;21300;52.006;5.798;2022-07-03T06:22:58;6.57;;;2.25;;
35126;SDS011;21300;52.006;5.798;2022-07-03T06:25:23;2.75;;;1.55;;
35126;SDS011;21300;52.006;5.798;2022-07-03T06:27:49;2.97;;;1.35;;
35126;SDS011;21300;52.006;5.798;2022-07-03T06:30:15;6.03;;;1.90;;
35126;SDS011;21300;52.006;5.798;2022-07-03T06:32:40;6.03;;;1.90;;
35126;SDS011;21300;52.006;5.798;2022-07-03T06:35:06;3.78;;;1.50;;
35126;SDS011;21300;52.006;5.798;2022-07-03T06:37:32;4.25;;;1.75;;
35126;SDS011;21300;52.006;5.798;2022-07-03T06:39:57;4.68;;;1.75;;
35126;SDS011;21300;52.006;5.798;2022-07-03T06:42:23;3.80;;;1.48;;
35126;SDS011;21300;52.006;5.798;2022-07-03T06:44:48;6.68;;;1.70;;
35126;SDS011;21300;52.006;5.798;2022-07-03T06:47:14;5.18;;;1.60;;
35126;SDS011;21300;52.006;5.798;2022-07-03T06:49:40;3.60;;;1.40;;
35126;SDS011;21300;52.006;5.798;2022-07-03T06:52:05;5.55;;;1.60;;
35126;SDS011;21300;52.006;5.798;2022-07-03T06:54:31;5.97;;;1.85;;
35126;SDS011;21300;52.006;5.798;2022-07-03T06:56:57;4.88;;;1.30;;
35126;SDS011;21300;52.006;5.798;2022-07-03T06:59:22;7.18;;;1.48;;
35126;SDS011;21300;52.006;5.798;2022-07-03T07:01:48;3.92;;;1.33;;
35126;SDS011;21300;52.006;5.798;2022-07-03T07:04:13;5.50;;;1.50;;
35126;SDS011;21300;52.006;5.798;2022-07-03T07:06:39;2.80;;;1.30;;
35126;SDS011;21300;52.006;5.798;2022-07-03T07:09:05;5.35;;;1.08;;
35126;SDS011;21300;52.006;5.798;2022-07-03T07:11:30;6.90;;;1.52;;
35126;SDS011;21300;52.006;5.798;2022-07-03T07:13:56;3.65;;;1.63;;
35126;SDS011;21300;52.006;5.798;2022-07-03T07:16:22;7.95;;;1.77;;
35126;SDS011;21300;52.006;5.798;2022-07-03T07:18:47;5.40;;;1.50;;
35126;SDS011;21300;52.006;5.798;2022-07-03T07:21:13;4.50;;;1.10;;
35126;SDS011;21300;52.006;5.798;2022-07-03T07:23:39;2.30;;;0.90;;
35126;SDS011;21300;52.006;5.798;2022-07-03T07:26:04;3.30;;;0.98;;
35126;SDS011;21300;52.006;5.798;2022-07-03T07:28:31;4.30;;;1.10;;
35126;SDS011;21300;52.006;5.798;2022-07-03T07:30:58;5.38;;;0.98;;
35126;SDS011;21300;52.006;5.798;2022-07-03T07:33:24;3.92;;;1.20;;
35126;SDS011;21300;52.006;5.798;2022-07-03T07:35:50;4.38;;;1.13;;
35126;SDS011;21300;52.006;5.798;2022-07-03T07:38:16;2.42;;;1.10;;
35126;SDS011;21300;52.006;5.798;2022-07-03T07:40:42;2.90;;;0.95;;
35126;SDS011;21300;52.006;5.798;2022-07-03T07:43:10;13.15;;;1.30;;
35126;SDS011;21300;52.006;5.798;2022-07-03T07:45:36;2.58;;;0.80;;
35126;SDS011;21300;52.006;5.798;2022-07-03T07:48:02;3.47;;;0.80;;
35126;SDS011;21300;52.006;5.798;2022-07-03T07:50:28;7.45;;;1.75;;
35126;SDS011;21300;52.006;5.798;2022-07-03T07:52:54;6.50;;;1.40;;
35126;SDS011;21300;52.006;5.798;2022-07-03T07:55:20;10.63;;;1.40;;
35126;SDS011;21300;52.006;5.798;2022-07-03T07:57:46;7.22;;;0.90;;
35126;SDS011;21300;52.006;5.798;2022-07-03T08:00:15;5.47;;;1.08;;
35126;SDS011;21300;52.006;5.798;2022-07-03T08:02:43;7.50;;;1.38;;
35126;SDS011;21300;52.006;5.798;2022-07-03T08:10:40;3.10;;;1.00;;
35126;SDS011;21300;52.006;5.798;2022-07-03T08:13:08;4.00;;;1.00;;
35126;SDS011;21300;52.006;5.798;2022-07-03T08:15:35;2.67;;;0.82;;
35126;SDS011;21300;52.006;5.798;2022-07-03T08:18:01;5.07;;;0.88;;
35126;SDS011;21300;52.006;5.798;2022-07-03T08:20:27;4.75;;;0.90;;
35126;SDS011;21300;52.006;5.798;2022-07-03T08:22:53;2.00;;;0.80;;
35126;SDS011;21300;52.006;5.798;2022-07-03T08:25:19;4.40;;;1.05;;
35126;SDS011;21300;52.006;5.798;2022-07-03T08:27:45;2.55;;;0.93;;
35126;SDS011;21300;52.006;5.798;2022-07-03T08:30:11;2.85;;;1.00;;
35126;SDS011;21300;52.006;5.798;2022-07-03T08:32:39;5.95;;;1.20;;
35126;SDS011;21300;52.006;5.798;2022-07-03T08:35:05;2.28;;;0.93;;
35126;SDS011;21300;52.006;5.798;2022-07-03T08:37:31;2.88;;;1.33;;
35126;SDS011;21300;52.006;5.798;2022-07-03T08:39:57;3.90;;;0.98;;
35126;SDS011;21300;52.006;5.798;2022-07-03T08:42:24;7.20;;;1.33;;
35126;SDS011;21300;52.006;5.798;2022-07-03T08:44:51;1.73;;;0.75;;
35126;SDS011;21300;52.006;5.798;2022-07-03T08:47:18;6.28;;;1.10;;
35126;SDS011;21300;52.006;5.798;2022-07-03T08:49:44;3.90;;;1.15;;
35126;SDS011;21300;52.006;5.798;2022-07-03T08:52:11;2.88;;;0.98;;
35126;SDS011;21300;52.006;5.798;2022-07-03T08:54:38;3.67;;;0.80;;
35126;SDS011;21300;52.006;5.798;2022-07-03T08:57:03;6.97;;;1.08;;
35126;SDS011;21300;52.006;5.798;2022-07-03T08:59:37;3.38;;;1.00;;
35126;SDS011;21300;52.006;5.798;2022-07-03T09:02:04;3.78;;;0.90;;
35126;SDS011;21300;52.006;5.798;2022-07-03T09:04:33;3.88;;;1.10;;
35126;SDS011;21300;52.006;5.798;2022-07-03T09:06:59;4.40;;;1.02;;
35126;SDS011;21300;52.006;5.798;2022-07-03T09:09:25;4.18;;;1.10;;
35126;SDS011;21300;52.006;5.798;2022-07-03T09:11:51;4.47;;;1.10;;
35126;SDS011;21300;52.006;5.798;2022-07-03T09:14:18;3.63;;;1.00;;
35126;SDS011;21300;52.006;5.798;2022-07-03T09:16:44;2.88;;;1.27;;
35126;SDS011;21300;52.006;5.798;2022-07-03T09:19:10;4.13;;;1.10;;
35126;SDS011;21300;52.006;5.798;2022-07-03T09:21:38;2.33;;;0.80;;
35126;SDS011;21300;52.006;5.798;2022-07-03T09:24:07;3.15;;;0.93;;
35126;SDS011;21300;52.006;5.798;2022-07-03T09:26:34;3.60;;;0.90;;
35126;SDS011;21300;52.006;5.798;2022-07-03T09:29:00;5.05;;;0.90;;
35126;SDS011;21300;52.006;5.798;2022-07-03T09:31:28;3.47;;;0.88;;
35126;SDS011;21300;52.006;5.798;2022-07-03T09:33:59;2.55;;;0.90;;
35126;SDS011;21300;52.006;5.798;2022-07-03T09:42:01;2.97;;;0.80;;
35126;SDS011;21300;52.006;5.798;2022-07-03T09:44:38;1.48;;;0.65;;
35126;SDS011;21300;52.006;5.798;2022-07-03T09:47:18;3.55;;;0.95;;
35126;SDS011;21300;52.006;5.798;2022-07-03T09:49:55;4.93;;;0.75;;
35126;SDS011;21300;52.006;5.798;2022-07-03T09:52:31;1.58;;;0.63;;
35126;SDS011;21300;52.006;5.798;2022-07-03T09:57:36;3.70;;;0.90;;
35126;SDS011;21300;52.006;5.798;2022-07-03T10:02:58;4.03;;;0.90;;
35126;SDS011;21300;52.006;5.798;2022-07-03T10:05:26;2.63;;;0.90;;
35126;SDS011;21300;52.006;5.798;2022-07-03T10:10:23;1.92;;;0.75;;
35126;SDS011;21300;52.006;5.798;2022-07-03T10:12:51;2.38;;;0.90;;
35126;SDS011;21300;52.006;5.798;2022-07-03T10:15:18;3.05;;;0.73;;
35126;SDS011;21300;52.006;5.798;2022-07-03T10:17:50;3.40;;;0.90;;
35126;SDS011;21300;52.006;5.798;2022-07-03T10:23:10;1.73;;;0.55;;
35126;SDS011;21300;52.006;5.798;2022-07-03T10:25:36;2.00;;;0.70;;
35126;SDS011;21300;52.006;5.798;2022-07-03T10:28:06;1.77;;;0.85;;
35126;SDS011;21300;52.006;5.798;2022-07-03T10:30:32;2.78;;;0.75;;
35126;SDS011;21300;52.006;5.798;2022-07-03T10:32:59;4.47;;;0.80;;
35126;SDS011;21300;52.006;5.798;2022-07-03T10:44:18;2.80;;;0.80;;
35126;SDS011;21300;52.006;5.798;2022-07-03T10:47:03;6.35;;;1.05;;
35126;SDS011;21300;52.006;5.798;2022-07-03T10:49:29;2.90;;;0.85;;
35126;SDS011;21300;52.006;5.798;2022-07-03T10:51:56;3.53;;;1.10;;
35126;SDS011;21300;52.006;5.798;2022-07-03T10:54:25;1.88;;;0.80;;
35126;SDS011;21300;52.006;5.798;2022-07-03T11:00:11;5.03;;;0.93;;
35126;SDS011;21300;52.006;5.798;2022-07-03T11:02:32;2.88;;;0.90;;
35126;SDS011;21300;52.006;5.798;2022-07-03T11:05:03;4.90;;;1.05;;
35126;SDS011;21300;52.006;5.798;2022-07-03T11:13:00;2.35;;;0.65;;
35126;SDS011;21300;52.006;5.798;2022-07-03T11:15:53;1.00;;;0.70;;
35126;SDS011;21300;52.006;5.798;2022-07-03T11:21:02;4.40;;;1.10;;
35126;SDS011;21300;52.006;5.798;2022-07-03T11:26:20;5.57;;;1.17;;
35126;SDS011;21300;52.006;5.798;2022-07-03T11:28:47;1.35;;;0.80;;
35126;SDS011;21300;52.006;5.798;2022-07-03T11:31:17;2.22;;;0.60;;
35126;SDS011;21300;52.006;5.798;2022-07-03T11:33:48;1.42;;;0.60;;
35126;SDS011;21300;52.006;5.798;2022-07-03T11:36:29;2.13;;;0.77;;
35126;SDS011;21300;52.006;5.798;2022-07-03T11:41:25;2.15;;;0.75;;
35126;SDS011;21300;52.006;5.798;2022-07-03T11:44:01;2.53;;;0.60;;
35126;SDS011;21300;52.006;5.798;2022-07-03T11:46:31;4.00;;;1.13;;
35126;SDS011;21300;52.006;5.798;2022-07-03T11:51:54;1.10;;;0.65;;
35126;SDS011;21300;52.006;5.798;2022-07-03T11:54:19;1.42;;;0.70;;
35126;SDS011;21300;52.006;5.798;2022-07-03T11:56:45;2.72;;;0.70;;
35126;SDS011;21300;52.006;5.798;2022-07-03T11:59:11;1.67;;;0.60;;
35126;SDS011;21300;52.006;5.798;2022-07-03T12:01:37;2.33;;;0.52;;
35126;SDS011;21300;52.006;5.798;2022-07-03T12:06:38;2.15;;;0.60;;
35126;SDS011;21300;52.006;5.798;2022-07-03T12:17:10;2.30;;;0.65;;
35126;SDS011;21300;52.006;5.798;2022-07-03T12:22:22;1.70;;;0.60;;
35126;SDS011;21300;52.006;5.798;2022-07-03T12:25:07;2.75;;;0.70;;
35126;SDS011;21300;52.006;5.798;2022-07-03T12:27:35;2.70;;;0.90;;
35126;SDS011;21300;52.006;5.798;2022-07-03T12:30:02;3.40;;;0.77;;
35126;SDS011;21300;52.006;5.798;2022-07-03T12:32:29;4.80;;;0.60;;
35126;SDS011;21300;52.006;5.798;2022-07-03T12:34:55;1.60;;;0.70;;
35126;SDS011;21300;52.006;5.798;2022-07-03T12:37:37;1.33;;;0.60;;
35126;SDS011;21300;52.006;5.798;2022-07-03T12:40:07;2.07;;;0.70;;
35126;SDS011;21300;52.006;5.798;2022-07-03T12:42:44;2.83;;;0.70;;
35126;SDS011;21300;52.006;5.798;2022-07-03T12:45:12;2.28;;;0.60;;
35126;SDS011;21300;52.006;5.798;2022-07-03T12:47:39;2.42;;;0.70;;
35126;SDS011;21300;52.006;5.798;2022-07-03T12:50:05;1.25;;;0.50;;
35126;SDS011;21300;52.006;5.798;2022-07-03T12:52:32;4.15;;;0.80;;
35126;SDS011;21300;52.006;5.798;2022-07-03T12:54:59;2.67;;;0.73;;
35126;SDS011;21300;52.006;5.798;2022-07-03T12:57:26;2.28;;;0.73;;
35126;SDS011;21300;52.006;5.798;2022-07-03T13:00:11;1.15;;;0.50;;
35126;SDS011;21300;52.006;5.798;2022-07-03T13:02:43;0.93;;;0.57;;
35126;SDS011;21300;52.006;5.798;2022-07-03T13:05:17;1.85;;;0.60;;
35126;SDS011;21300;52.006;5.798;2022-07-03T13:07:44;2.15;;;0.70;;
35126;SDS011;21300;52.006;5.798;2022-07-03T13:10:13;3.35;;;0.70;;
35126;SDS011;21300;52.006;5.798;2022-07-03T13:15:16;5.70;;;1.17;;
35126;SDS011;21300;52.006;5.798;2022-07-03T13:20:28;4.55;;;0.80;;
35126;SDS011;21300;52.006;5.798;2022-07-03T13:22:55;2.50;;;0.80;;
35126;SDS011;21300;52.006;5.798;2022-07-03T13:25:22;1.98;;;0.68;;
35126;SDS011;21300;52.006;5.798;2022-07-03T13:27:48;2.42;;;0.70;;
35126;SDS011;21300;52.006;5.798;2022-07-03T13:30:14;1.95;;;0.80;;
35126;SDS011;21300;52.006;5.798;2022-07-03T13:32:40;2.30;;;0.70;;
35126;SDS011;21300;52.006;5.798;2022-07-03T13:35:07;5.57;;;1.60;;
35126;SDS011;21300;52.006;5.798;2022-07-03T13:37:33;1.92;;;0.63;;
35126;SDS011;21300;52.006;5.798;2022-07-03T13:40:00;1.90;;;0.60;;
35126;SDS011;21300;52.006;5.798;2022-07-03T13:42:26;1.92;;;0.63;;
35126;SDS011;21300;52.006;5.798;2022-07-03T13:44:52;2.20;;;0.70;;
35126;SDS011;21300;52.006;5.798;2022-07-03T13:47:18;3.65;;;0.95;;
35126;SDS011;21300;52.006;5.798;2022-07-03T13:49:43;3.50;;;1.13;;
35126;SDS011;21300;52.006;5.798;2022-07-03T13:52:09;2.95;;;1.02;;
35126;SDS011;21300;52.006;5.798;2022-07-03T13:54:35;2.35;;;0.90;;
35126;SDS011;21300;52.006;5.798;2022-07-03T13:57:01;3.13;;;0.70;;
35126;SDS011;21300;52.006;5.798;2022-07-03T13:59:27;4.07;;;1.25;;
35126;SDS011;21300;52.006;5.798;2022-07-03T14:01:55;2.13;;;0.70;;
35126;SDS011;21300;52.006;5.798;2022-07-03T14:04:21;1.70;;;0.90;;
35126;SDS011;21300;52.006;5.798;2022-07-03T14:06:47;2.20;;;0.80;;
35126;SDS011;21300;52.006;5.798;2022-07-03T14:09:13;2.47;;;0.80;;
35126;SDS011;21300;52.006;5.798;2022-07-03T14:11:38;1.55;;;0.80;;
35126;SDS011;21300;52.006;5.798;2022-07-03T14:14:04;3.28;;;1.20;;
35126;SDS011;21300;52.006;5.798;2022-07-03T14:16:31;2.00;;;0.88;;
35126;SDS011;21300;52.006;5.798;2022-07-03T14:18:56;2.90;;;1.15;;
35126;SDS011;21300;52.006;5.798;2022-07-03T14:21:22;8.18;;;1.65;;
35126;SDS011;21300;52.006;5.798;2022-07-03T14:23:48;3.17;;;1.33;;
35126;SDS011;21300;52.006;5.798;2022-07-03T14:26:13;4.82;;;1.52;;
35126;SDS011;21300;52.006;5.798;2022-07-03T14:28:39;2.75;;;1.20;;
35126;SDS011;21300;52.006;5.798;2022-07-03T14:31:23;3.10;;;1.20;;
35126;SDS011;21300;52.006;5.798;2022-07-03T14:33:49;4.22;;;1.02;;
35126;SDS011;21300;52.006;5.798;2022-07-03T14:36:16;3.58;;;0.98;;
35126;SDS011;21300;52.006;5.798;2022-07-03T14:38:41;2.95;;;1.00;;
35126;SDS011;21300;52.006;5.798;2022-07-03T14:41:08;3.25;;;1.00;;
35126;SDS011;21300;52.006;5.798;2022-07-03T14:43:33;2.90;;;0.80;;
35126;SDS011;21300;52.006;5.798;2022-07-03T14:45:59;2.33;;;0.90;;
35126;SDS011;21300;52.006;5.798;2022-07-03T14:48:24;2.47;;;1.10;;
35126;SDS011;21300;52.006;5.798;2022-07-03T14:50:51;4.25;;;1.40;;
35126;SDS011;21300;52.006;5.798;2022-07-03T14:53:17;3.10;;;1.33;;
35126;SDS011;21300;52.006;5.798;2022-07-03T14:55:43;3.63;;;1.27;;
35126;SDS011;21300;52.006;5.798;2022-07-03T15:00:46;4.70;;;1.50;;
35126;SDS011;21300;52.006;5.798;2022-07-03T15:05:54;3.33;;;0.88;;
35126;SDS011;21300;52.006;5.798;2022-07-03T15:10:53;4.97;;;1.10;;
35126;SDS011;21300;52.006;5.798;2022-07-03T15:13:19;2.47;;;0.77;;
35126;SDS011;21300;52.006;5.798;2022-07-03T15:15:45;2.60;;;1.30;;
35126;SDS011;21300;52.006;5.798;2022-07-03T15:18:13;4.90;;;1.05;;
35126;SDS011;21300;52.006;5.798;2022-07-03T15:20:42;2.55;;;0.90;;
35126;SDS011;21300;52.006;5.798;2022-07-03T15:23:09;2.28;;;0.77;;
35126;SDS011;21300;52.006;5.798;2022-07-03T15:25:53;2.95;;;1.00;;
35126;SDS011;21300;52.006;5.798;2022-07-03T15:28:20;4.88;;;1.10;;
35126;SDS011;21300;52.006;5.798;2022-07-03T15:30:48;1.80;;;0.80;;
35126;SDS011;21300;52.006;5.798;2022-07-03T15:33:15;3.30;;;1.05;;
35126;SDS011;21300;52.006;5.798;2022-07-03T15:35:45;2.55;;;0.70;;
35126;SDS011;21300;52.006;5.798;2022-07-03T15:38:17;3.33;;;1.13;;
35126;SDS011;21300;52.006;5.798;2022-07-03T15:40:53;1.50;;;0.93;;
35126;SDS011;21300;52.006;5.798;2022-07-03T15:51:43;3.63;;;0.80;;
35126;SDS011;21300;52.006;5.798;2022-07-03T15:57:05;5.80;;;1.25;;
35126;SDS011;21300;52.006;5.798;2022-07-03T15:59:35;1.90;;;0.70;;
35126;SDS011;21300;52.006;5.798;2022-07-03T16:02:05;2.80;;;0.90;;
35126;SDS011;21300;52.006;5.798;2022-07-03T16:07:24;4.07;;;1.13;;
35126;SDS011;21300;52.006;5.798;2022-07-03T16:09:51;2.28;;;0.65;;
35126;SDS011;21300;52.006;5.798;2022-07-03T16:12:17;2.92;;;0.70;;
35126;SDS011;21300;52.006;5.798;2022-07-03T16:14:45;4.80;;;0.85;;
35126;SDS011;21300;52.006;5.798;2022-07-03T16:17:13;3.38;;;0.85;;
35126;SDS011;21300;52.006;5.798;2022-07-03T16:19:45;2.00;;;0.70;;
35126;SDS011;21300;52.006;5.798;2022-07-03T16:22:12;2.15;;;0.60;;
35126;SDS011;21300;52.006;5.798;2022-07-03T16:24:38;1.50;;;0.50;;
35126;SDS011;21300;52.006;5.798;2022-07-03T16:27:05;3.47;;;0.82;;
35126;SDS011;21300;52.006;5.798;2022-07-03T16:29:31;2.40;;;0.77;;
35126;SDS011;21300;52.006;5.798;2022-07-03T16:31:58;1.85;;;0.68;;
35126;SDS011;21300;52.006;5.798;2022-07-03T16:34:34;1.77;;;0.75;;
35126;SDS011;21300;52.006;5.798;2022-07-03T16:37:12;1.05;;;0.70;;
35126;SDS011;21300;52.006;5.798;2022-07-03T16:39:40;2.65;;;0.75;;
35126;SDS011;21300;52.006;5.798;2022-07-03T16:42:10;4.03;;;0.70;;
35126;SDS011;21300;52.006;5.798;2022-07-03T16:44:40;3.00;;;0.80;;
35126;SDS011;21300;52.006;5.798;2022-07-03T16:47:06;2.45;;;0.73;;
35126;SDS011;21300;52.006;5.798;2022-07-03T16:49:33;2.92;;;0.70;;
35126;SDS011;21300;52.006;5.798;2022-07-03T16:52:02;2.22;;;0.85;;
35126;SDS011;21300;52.006;5.798;2022-07-03T16:54:30;1.88;;;0.50;;
35126;SDS011;21300;52.006;5.798;2022-07-03T16:56:59;2.28;;;0.70;;
35126;SDS011;21300;52.006;5.798;2022-07-03T16:59:29;2.13;;;0.93;;
35126;SDS011;21300;52.006;5.798;2022-07-03T17:01:57;3.38;;;0.70;;